createdAt,value
2017-11-12T07:11:49.760Z,7.03
2017-11-12T07:13:03.952Z,7.1
2017-11-12T07:14:18.288Z,7
2017-11-12T07:15:32.609Z,6.95
2017-11-12T07:16:47.191Z,6.89
2017-11-12T07:18:01.867Z,6.89
2017-11-12T07:19:16.584Z,6.9
2017-11-12T07:20:30.813Z,6.8
2017-11-12T07:21:46.230Z,6.78
2017-11-12T07:23:01.447Z,6.77
2017-11-12T07:24:16.010Z,6.78
2017-11-12T07:25:31.097Z,6.67
2017-11-12T07:26:45.458Z,6.74
2017-11-12T07:28:00.111Z,6.77
2017-11-12T07:29:14.866Z,6.78
2017-11-12T07:30:29.089Z,6.83
2017-11-12T07:31:44.986Z,6.93
2017-11-12T07:33:33.709Z,6.97
2017-11-12T07:34:48.084Z,7.03
2017-11-12T07:36:02.284Z,6.97
2017-11-12T07:37:34.023Z,7.11
2017-11-12T07:38:48.382Z,7.26
2017-11-12T07:40:02.636Z,7.28
2017-11-12T07:41:17.430Z,7.15
2017-11-12T07:43:01.709Z,7.23
2017-11-12T07:44:16.157Z,7.22
2017-11-12T07:45:30.747Z,7.21
2017-11-12T07:47:02.120Z,7.25
2017-11-12T07:48:17.219Z,7.11
2017-11-12T07:49:31.542Z,7.11
2017-11-12T07:51:02.907Z,7.29
2017-11-12T07:52:17.210Z,7.28
2017-11-12T07:53:32.889Z,7.31
2017-11-12T07:54:47.446Z,7.28
2017-11-12T07:56:01.686Z,7.33
2017-11-12T07:57:31.084Z,7.28
2017-11-12T07:58:45.680Z,7.32
2017-11-12T08:00:00.090Z,7.31
2017-11-12T08:01:14.285Z,7.37
2017-11-12T08:02:28.649Z,7.31
2017-11-12T08:03:43.641Z,7.26
2017-11-12T08:04:58.340Z,7.28
2017-11-12T08:06:12.510Z,7.26
2017-11-12T08:07:36.976Z,7.14
2017-11-12T08:08:51.838Z,7.22
2017-11-12T08:10:06.680Z,7.11
2017-11-12T08:11:20.913Z,7.13
2017-11-12T08:12:35.791Z,7.01
2017-11-12T08:13:50.329Z,7
2017-11-12T08:15:18.123Z,6.96
2017-11-12T08:16:32.746Z,6.95
2017-11-12T08:17:47.632Z,6.89
2017-11-12T08:19:02.465Z,6.95
2017-11-12T08:20:16.896Z,6.9
2017-11-12T08:21:32.033Z,6.87
2017-11-12T08:22:46.461Z,6.89
2017-11-12T08:24:00.692Z,6.96
2017-11-12T08:25:15.167Z,7
2017-11-12T08:26:29.405Z,7.03
2017-11-12T08:27:46.120Z,6.96
2017-11-12T08:29:00.553Z,7.01
2017-11-12T08:30:14.917Z,7.18
2017-11-12T08:31:29.958Z,7.15
2017-11-12T08:32:45.633Z,7.25
2017-11-12T08:34:00.601Z,7.14
2017-11-12T08:35:15.154Z,7.26
2017-11-12T08:36:29.370Z,7.33
2017-11-12T08:37:44.516Z,7.28
2017-11-12T08:38:59.261Z,7.29
2017-11-12T08:40:31.887Z,7.39
2017-11-12T08:41:46.937Z,7.26
2017-11-12T08:43:01.637Z,7.4
2017-11-12T08:44:16.277Z,7.32
2017-11-12T08:45:31.105Z,7.33
2017-11-12T08:46:55.956Z,7.29
2017-11-12T08:48:10.863Z,7.32
2017-11-12T08:49:26.555Z,7.31
2017-11-12T08:50:41.249Z,7.36
2017-11-12T08:51:56.392Z,7.32
2017-11-12T08:53:11.384Z,7.48
2017-11-12T08:54:27.920Z,7.44
2017-11-12T08:55:42.289Z,7.53
2017-11-12T08:56:57.147Z,7.51
2017-11-12T08:58:11.509Z,7.55
2017-11-12T08:59:26.750Z,7.51
2017-11-12T09:00:41.364Z,7.61
2017-11-12T09:01:57.007Z,7.56
2017-11-12T09:03:11.880Z,7.61
2017-11-12T09:04:31.626Z,7.55
2017-11-12T09:05:46.413Z,7.59
2017-11-12T09:07:03.102Z,7.56
2017-11-12T09:08:18.055Z,7.61
2017-11-12T09:09:32.666Z,7.66
2017-11-12T09:10:46.946Z,7.61
2017-11-12T09:12:03.115Z,7.58
2017-11-12T09:13:17.758Z,7.61
2017-11-12T09:14:33.356Z,7.67
2017-11-12T09:21:01.578Z,7.67
2017-11-12T09:22:16.493Z,7.61
2017-11-12T09:24:08.967Z,7.58
2017-11-12T09:25:24.078Z,7.43
2017-11-12T09:26:39.346Z,7.5
2017-11-12T09:27:54.423Z,7.47
2017-11-12T09:29:09.475Z,7.44
2017-11-12T09:30:24.122Z,7.41
2017-11-12T09:31:39.592Z,7.39
2017-11-12T09:33:12.348Z,7.43
2017-11-12T09:34:26.910Z,7.41
2017-11-12T09:35:42.388Z,7.33
2017-11-12T09:36:57.007Z,7.44
2017-11-12T09:38:12.232Z,7.46
2017-11-12T09:39:28.206Z,7.53
2017-11-12T09:40:43.435Z,7.55
2017-11-12T09:42:16.214Z,7.66
2017-11-12T09:43:30.709Z,7.74
2017-11-12T09:44:44.997Z,7.75
2017-11-12T09:45:59.448Z,7.84
2017-11-12T09:47:14.769Z,7.98
2017-11-12T09:48:29.837Z,7.99
2017-11-12T09:49:44.680Z,8.06
2017-11-12T09:52:37.845Z,8.06
2017-11-12T09:53:52.725Z,8.14
2017-11-12T09:55:07.446Z,8.13
2017-11-12T09:56:25.297Z,8.14
2017-11-12T09:57:41.286Z,8.14
2017-11-12T09:58:56.739Z,7.96
2017-11-12T10:00:11.080Z,7.77
2017-11-12T10:01:30.678Z,7.66
2017-11-12T10:02:45.487Z,7.64
2017-11-12T10:04:02.032Z,7.58
2017-11-12T10:05:16.453Z,7.47
2017-11-12T10:06:30.816Z,7.36
2017-11-12T10:07:45.242Z,7.31
2017-11-12T10:08:59.676Z,7.36
2017-11-12T10:10:14.294Z,7.29
2017-11-12T10:11:28.979Z,7.28
2017-11-12T10:12:43.345Z,7.31
2017-11-12T10:14:13.525Z,7.28
2017-11-12T10:16:06.278Z,7.33
2017-11-12T10:17:35.277Z,7.44
2017-11-12T10:18:50.045Z,7.53
2017-11-12T10:20:04.426Z,7.61
2017-11-12T10:21:37.026Z,7.58
2017-11-12T10:23:03.122Z,7.64
2017-11-12T10:24:18.028Z,7.81
2017-11-12T10:25:55.308Z,7.66
2017-11-12T10:27:10.315Z,7.66
2017-11-12T10:28:24.885Z,7.61
2017-11-12T10:29:39.820Z,7.66
2017-11-12T10:30:54.491Z,7.64
2017-11-12T10:32:10.547Z,7.47
2017-11-12T10:37:37.176Z,7.36
2017-11-12T10:39:38.053Z,7.33
2017-11-12T10:41:50.807Z,7.4
2017-11-12T10:43:27.418Z,7.32
2017-11-12T10:44:59.197Z,7.28
2017-11-12T10:46:36.055Z,7.29
2017-11-12T10:48:14.019Z,7.39
2017-11-12T10:49:28.604Z,7.47
2017-11-12T10:50:44.143Z,7.28
2017-11-12T10:52:00.071Z,7.31
2017-11-12T10:53:15.394Z,7.28
2017-11-12T10:54:31.096Z,7.25
2017-11-12T10:55:46.136Z,7.29
2017-11-12T10:57:00.816Z,7.26
2017-11-12T10:58:16.549Z,7.15
2017-11-12T10:59:31.824Z,7.26
2017-11-12T11:00:47.863Z,7.31
2017-11-12T11:02:51.585Z,7.4
2017-11-12T11:04:05.984Z,7.51
2017-11-12T11:05:20.832Z,7.51
2017-11-12T11:06:35.525Z,7.53
2017-11-12T11:07:49.918Z,7.46
2017-11-12T11:09:05.124Z,7.51
2017-11-12T11:10:21.758Z,7.47
2017-11-12T11:11:37.900Z,7.5
2017-11-12T11:12:53.070Z,7.37
2017-11-12T11:14:08.215Z,7.39
2017-11-12T11:15:23.473Z,7.47
2017-11-12T11:16:39.070Z,7.41
2017-11-12T11:17:53.424Z,7.47
2017-11-12T11:19:08.394Z,7.47
2017-11-12T11:20:22.682Z,7.46
2017-11-12T11:22:03.326Z,7.44
2017-11-12T11:23:17.820Z,7.4
2017-11-12T11:24:32.435Z,7.39
2017-11-12T11:26:04.401Z,7.33
2017-11-12T11:27:19.894Z,7.4
2017-11-12T11:28:34.152Z,7.44
2017-11-12T11:30:08.335Z,7.37
2017-11-12T11:31:22.881Z,7.31
2017-11-12T11:32:37.687Z,7.41
2017-11-12T11:33:52.938Z,7.26
2017-11-12T11:35:07.393Z,7.29
2017-11-12T11:36:44.505Z,7.28
2017-11-12T11:38:19.670Z,7.32
2017-11-12T11:39:34.679Z,7.4
2017-11-12T11:40:49.221Z,7.32
2017-11-12T11:42:28.691Z,7.39
2017-11-12T11:43:43.710Z,7.39
2017-11-12T11:44:58.607Z,7.41
2017-11-12T11:46:13.666Z,7.36
2017-11-12T11:47:28.878Z,7.28
2017-11-12T11:48:48.568Z,7.28
2017-11-12T11:50:03.483Z,7.15
2017-11-12T11:51:30.699Z,7.07
2017-11-12T11:52:45.637Z,7.18
2017-11-12T11:54:15.870Z,7.26
2017-11-12T11:55:45.237Z,7.23
2017-11-12T11:56:59.782Z,7.21
2017-11-12T11:58:14.535Z,7.14
2017-11-12T11:59:29.227Z,7.14
2017-11-12T12:00:43.684Z,7.07
2017-11-12T12:01:58.192Z,7.11
2017-11-12T12:03:12.939Z,7.1
2017-11-12T12:04:28.508Z,7.11
2017-11-12T12:06:08.491Z,7.19
2017-11-12T12:07:23.742Z,7.28
2017-11-12T12:08:38.864Z,7.29
2017-11-12T12:10:44.386Z,7.4
2017-11-12T12:12:14.744Z,7.36
2017-11-12T12:13:30.633Z,7.33
2017-11-12T12:14:45.684Z,7.33
2017-11-12T12:16:01.462Z,7.14
2017-11-12T12:17:17.666Z,7.07
2017-11-12T12:18:34.426Z,7.18
2017-11-12T12:19:51.305Z,7.19
2017-11-12T12:21:07.378Z,7.1
2017-11-12T12:22:25.067Z,7.21
2017-11-12T12:23:39.764Z,7.11
2017-11-12T12:25:48.758Z,7.04
2017-11-12T12:27:20.505Z,6.97
2017-11-12T12:28:37.085Z,6.87
2017-11-12T12:29:51.645Z,6.96
2017-11-12T12:31:07.309Z,6.86
2017-11-12T12:32:22.255Z,6.86
2017-11-12T12:33:37.905Z,6.83
2017-11-12T12:34:54.465Z,6.75
2017-11-12T12:36:10.529Z,6.8
2017-11-12T12:37:25.157Z,6.8
2017-11-12T12:39:01.873Z,6.78
2017-11-12T12:40:16.973Z,6.75
2017-11-12T12:41:31.361Z,6.74
2017-11-12T12:42:47.598Z,6.65
2017-11-12T12:44:02.449Z,6.68
2017-11-12T12:45:34.046Z,6.64
2017-11-12T12:46:48.885Z,6.57
2017-11-12T12:48:04.113Z,6.72
2017-11-12T12:49:19.915Z,6.6
2017-11-12T12:50:34.809Z,6.7
2017-11-12T12:51:49.778Z,6.54
2017-11-12T12:53:05.225Z,6.64
2017-11-12T12:54:21.902Z,6.74
2017-11-12T12:55:50.906Z,6.75
2017-11-12T12:57:11.312Z,6.75
2017-11-12T12:58:28.785Z,6.77
2017-11-12T12:59:44.609Z,6.7
2017-11-12T13:01:00.163Z,6.75
2017-11-12T13:02:15.230Z,6.75
2017-11-12T13:03:31.131Z,6.82
2017-11-12T13:04:47.127Z,6.74
2017-11-12T13:06:01.790Z,6.8
2017-11-12T13:07:16.760Z,6.68
2017-11-12T13:08:31.566Z,6.6
2017-11-12T13:09:46.808Z,6.78
2017-11-12T13:11:02.028Z,6.75
2017-11-12T13:12:16.522Z,6.83
2017-11-12T13:13:31.502Z,6.82
2017-11-12T13:14:46.677Z,6.74
2017-11-12T13:16:07.251Z,6.8
2017-11-12T13:17:39.033Z,6.89
2017-11-12T13:19:30.145Z,6.89
2017-11-12T13:21:06.244Z,6.97
2017-11-12T13:22:31.973Z,6.93
2017-11-12T13:23:46.881Z,6.96
2017-11-12T13:25:01.967Z,6.89
2017-11-12T13:26:17.191Z,6.92
2017-11-12T13:27:31.908Z,6.95
2017-11-12T13:28:46.985Z,6.86
2017-11-12T13:30:03.008Z,6.74
2017-11-12T13:31:18.430Z,6.74
2017-11-12T13:32:44.636Z,6.74
2017-11-12T13:33:59.276Z,6.71
2017-11-12T13:35:14.093Z,6.78
2017-11-12T13:36:28.565Z,6.86
2017-11-12T13:37:45.211Z,6.74
2017-11-12T13:39:02.110Z,6.72
2017-11-12T13:40:17.800Z,6.82
2017-11-12T13:41:32.061Z,6.86
2017-11-12T13:42:46.679Z,6.95
2017-11-12T13:44:02.533Z,6.95
2017-11-12T13:45:17.320Z,6.97
2017-11-12T13:46:31.787Z,7
2017-11-12T13:47:46.287Z,6.9
2017-11-12T13:49:00.774Z,6.9
2017-11-12T13:50:15.732Z,6.87
2017-11-12T13:51:30.902Z,6.9
2017-11-12T13:52:46.513Z,6.96
2017-11-12T13:54:03.438Z,7.03
2017-11-12T13:55:19.407Z,7.01
2017-11-12T13:56:34.893Z,7.04
2017-11-12T13:57:55.499Z,6.95
2017-11-12T13:59:10.662Z,7.03
2017-11-12T14:00:27.349Z,7.1
2017-11-12T14:01:42.462Z,7.1
2017-11-12T14:03:22.277Z,7.11
2017-11-12T14:04:46.585Z,7.13
2017-11-12T14:06:01.267Z,7.22
2017-11-12T14:07:15.966Z,7.31
2017-11-12T14:08:31.337Z,7.33
2017-11-12T14:10:01.512Z,7.39
2017-11-12T14:11:16.822Z,7.41
2017-11-12T14:14:37.651Z,7.61
2017-11-12T14:15:52.078Z,7.77
2017-11-12T14:17:07.484Z,7.8
2017-11-12T14:18:22.051Z,7.83
2017-11-12T14:19:36.412Z,7.78
2017-11-12T14:20:51.092Z,7.8
2017-11-12T14:22:06.456Z,7.78
2017-11-12T14:23:21.727Z,7.8
2017-11-12T14:24:37.082Z,7.64
2017-11-12T14:26:40.038Z,7.47
2017-11-12T14:27:55.916Z,7.48
2017-11-12T14:29:11.333Z,7.41
2017-11-12T14:31:00.748Z,7.43
2017-11-12T14:32:20.752Z,7.4
2017-11-12T14:33:35.202Z,7.25
2017-11-12T14:34:49.807Z,7.28
2017-11-12T14:36:06.597Z,7.26
2017-11-12T14:37:22.132Z,7.23
2017-11-12T14:38:51.172Z,7.15
2017-11-12T14:40:22.601Z,7.28
2017-11-12T14:41:37.424Z,7.18
2017-11-12T14:42:53.281Z,7.1
2017-11-12T14:44:09.282Z,7.18
2017-11-12T14:45:41.933Z,7.22
2017-11-12T14:47:18.086Z,7.13
2017-11-12T14:48:33.021Z,7.01
2017-11-12T14:49:47.519Z,7.01
2017-11-12T14:51:20.339Z,7
2017-11-12T14:52:45.779Z,7.07
2017-11-12T14:54:03.809Z,7.08
2017-11-12T14:55:53.049Z,7.01
2017-11-12T14:57:40.496Z,7
2017-11-12T14:59:12.639Z,6.97
2017-11-12T15:00:27.119Z,7.04
2017-11-12T15:01:42.228Z,7.04
2017-11-12T15:02:56.962Z,7.04
2017-11-12T15:04:12.198Z,6.95
2017-11-12T15:05:27.229Z,7.1
2017-11-12T15:06:42.440Z,7.03
2017-11-12T15:07:57.057Z,7
2017-11-12T15:11:15.161Z,7.07
2017-11-12T15:12:30.199Z,6.96
2017-11-12T15:13:44.450Z,6.96
2017-11-12T15:14:59.016Z,7.01
2017-11-12T15:16:13.661Z,6.9
2017-11-12T15:17:28.193Z,6.87
2017-11-12T15:18:43.284Z,6.95
2017-11-12T15:19:57.922Z,6.95
2017-11-12T15:21:13.992Z,7
2017-11-12T15:22:31.537Z,6.87
2017-11-12T15:23:46.872Z,6.89
2017-11-12T15:25:24.537Z,6.86
2017-11-12T15:26:39.072Z,6.78
2017-11-12T15:27:54.105Z,6.78
2017-11-12T15:29:33.197Z,6.75
2017-11-12T15:31:10.337Z,6.67
2017-11-12T15:32:30.962Z,6.56
2017-11-12T15:33:47.207Z,6.59
2017-11-12T15:35:03.447Z,6.59
2017-11-12T15:36:19.166Z,6.62
2017-11-12T15:37:34.392Z,6.6
2017-11-12T15:39:04.908Z,6.57
2017-11-12T15:40:19.740Z,6.57
2017-11-12T15:41:34.223Z,6.72
2017-11-12T15:42:50.216Z,6.71
2017-11-12T15:44:04.793Z,6.67
2017-11-12T15:45:19.849Z,6.65
2017-11-12T15:46:34.570Z,6.71
2017-11-12T15:48:08.315Z,6.75
2017-11-12T15:49:23.172Z,6.74
2017-11-12T15:50:38.416Z,6.78
2017-11-12T15:52:54.868Z,6.54
2017-11-12T15:54:11.239Z,6.54
2017-11-12T15:55:26.447Z,6.57
2017-11-12T15:56:40.780Z,6.54
2017-11-12T15:57:55.140Z,6.57
2017-11-12T15:59:09.581Z,6.68
2017-11-12T16:00:25.418Z,6.65
2017-11-12T16:01:40.471Z,6.57
2017-11-12T16:02:54.975Z,6.65
2017-11-12T16:04:09.510Z,6.6
2017-11-12T16:05:24.676Z,6.62
2017-11-12T16:06:39.624Z,6.72
2017-11-12T16:07:55.641Z,6.75
2017-11-12T16:09:11.109Z,6.67
2017-11-12T16:10:26.399Z,6.74
2017-11-12T16:11:41.367Z,6.64
2017-11-12T16:12:56.268Z,6.64
2017-11-12T16:14:11.502Z,6.56
2017-11-12T16:15:25.917Z,6.59
2017-11-12T16:16:40.718Z,6.52
2017-11-12T16:17:55.382Z,6.5
2017-11-12T16:19:09.906Z,6.6
2017-11-12T16:20:24.504Z,6.6
2017-11-12T16:21:39.815Z,6.56
2017-11-12T16:22:55.526Z,6.57
2017-11-12T16:24:10.996Z,6.57
2017-11-12T16:25:26.188Z,6.53
2017-11-12T16:26:40.725Z,6.57
2017-11-12T16:27:56.051Z,6.44
2017-11-12T16:29:14.359Z,6.46
2017-11-12T16:30:30.207Z,6.52
2017-11-12T16:31:45.483Z,6.47
2017-11-12T16:32:59.795Z,6.53
2017-11-12T16:34:14.133Z,6.57
2017-11-12T16:35:30.000Z,6.52
2017-11-12T16:36:48.071Z,6.52
2017-11-12T16:38:02.417Z,6.52
2017-11-12T16:39:16.945Z,6.56
2017-11-12T16:40:31.344Z,6.43
2017-11-12T16:41:45.599Z,6.38
2017-11-12T16:43:00.665Z,6.38
2017-11-12T16:44:15.598Z,6.31
2017-11-12T16:45:31.049Z,6.35
2017-11-12T16:46:46.171Z,6.34
2017-11-12T16:48:01.203Z,6.34
2017-11-12T16:49:16.152Z,6.41
2017-11-12T16:50:31.232Z,6.32
2017-11-12T16:51:46.704Z,6.35
2017-11-12T16:53:02.587Z,6.43
2017-11-12T16:54:18.053Z,6.46
2017-11-12T16:55:34.057Z,6.41
2017-11-12T16:56:49.077Z,6.44
2017-11-12T16:58:04.127Z,6.41
2017-11-12T16:59:18.677Z,6.41
2017-11-12T17:00:33.113Z,6.36
2017-11-12T17:01:47.629Z,6.26
2017-11-12T17:03:02.578Z,6.26
2017-11-12T17:04:17.087Z,6.26
2017-11-12T17:05:32.198Z,6.15
2017-11-12T17:06:46.814Z,6.17
2017-11-12T17:08:02.160Z,6.15
2017-11-12T17:09:17.375Z,6.17
2017-11-12T17:10:32.309Z,6.19
2017-11-12T17:11:47.890Z,6.15
2017-11-12T17:13:02.692Z,6.13
2017-11-12T17:14:17.652Z,6.07
2017-11-12T17:15:32.668Z,6.12
2017-11-12T17:16:48.123Z,6.06
2017-11-12T17:18:02.581Z,5.99
2017-11-12T17:19:17.936Z,6.07
2017-11-12T17:20:33.696Z,6.17
2017-11-12T17:21:48.916Z,6.2
2017-11-12T17:23:03.269Z,6.22
2017-11-12T17:24:17.557Z,6.28
2017-11-12T17:25:32.649Z,6.31
2017-11-12T17:26:47.146Z,6.32
2017-11-12T17:28:02.317Z,6.34
2017-11-12T17:29:17.115Z,6.46
2017-11-12T17:30:31.717Z,6.41
2017-11-12T17:31:46.742Z,6.35
2017-11-12T17:33:01.040Z,6.46
2017-11-12T17:34:15.874Z,6.44
2017-11-12T17:35:30.192Z,6.44
2017-11-12T17:36:44.878Z,6.41
2017-11-12T17:37:59.851Z,6.46
2017-11-12T17:39:14.751Z,6.46
2017-11-12T17:40:29.723Z,6.35
2017-11-12T17:41:44.226Z,6.34
2017-11-12T17:42:58.907Z,6.41
2017-11-12T17:44:13.155Z,6.44
2017-11-12T17:45:27.968Z,6.53
2017-11-12T17:46:42.531Z,6.44
2017-11-12T17:48:47.053Z,6.54
2017-11-12T17:50:02.641Z,6.52
2017-11-12T17:51:17.596Z,6.49
2017-11-12T17:52:32.978Z,6.5
2017-11-12T17:53:48.379Z,6.57
2017-11-12T17:55:03.198Z,6.64
2017-11-12T17:56:17.665Z,6.56
2017-11-12T17:57:32.182Z,6.56
2017-11-12T17:58:46.540Z,6.59
2017-11-12T18:00:01.386Z,6.67
2017-11-12T18:01:17.464Z,6.68
2017-11-12T18:08:29.128Z,6.62
2017-11-12T18:09:44.891Z,6.6
2017-11-12T18:10:59.718Z,6.56
2017-11-12T18:12:14.622Z,6.59
2017-11-12T18:13:29.588Z,6.56
2017-11-12T18:14:43.916Z,6.56
2017-11-12T18:15:58.227Z,6.67
2017-11-12T18:17:12.881Z,6.74
2017-11-12T18:18:28.539Z,6.7
2017-11-12T18:19:43.277Z,6.64
2017-11-12T18:20:58.017Z,6.65
2017-11-12T18:22:12.777Z,6.53
2017-11-12T18:23:27.892Z,6.6
2017-11-12T18:24:42.319Z,6.57
2017-11-12T18:25:56.695Z,6.56
2017-11-12T18:27:11.687Z,6.54
2017-11-12T18:28:26.854Z,6.53
2017-11-12T18:29:42.210Z,6.56
2017-11-12T18:30:56.506Z,6.59
2017-11-12T18:32:11.277Z,6.54
2017-11-12T18:33:26.282Z,6.56
2017-11-12T18:34:40.956Z,6.57
2017-11-12T18:35:57.063Z,6.52
2017-11-12T18:37:12.057Z,6.5
2017-11-12T18:38:27.915Z,6.36
2017-11-12T18:39:42.179Z,6.38
2017-11-12T18:40:56.983Z,6.31
2017-11-12T18:42:12.309Z,6.26
2017-11-12T18:43:27.841Z,6.17
2017-11-12T18:44:44.243Z,6.19
2017-11-12T18:46:01.295Z,6.15
2017-11-12T18:47:16.290Z,6.15
2017-11-12T18:48:33.080Z,6.12
2017-11-12T18:49:50.797Z,6.06
2017-11-12T18:51:07.790Z,6.16
2017-11-12T18:52:24.376Z,6.25
2017-11-12T18:53:40.124Z,6.13
2017-11-12T18:54:55.064Z,6.13
2017-11-12T18:56:09.590Z,6.17
2017-11-12T18:57:26.218Z,6.13
2017-11-12T18:58:42.299Z,6.07
2017-11-12T18:59:57.182Z,6.17
2017-11-12T19:01:13.581Z,6.22
2017-11-12T19:02:31.986Z,6.19
2017-11-12T19:04:17.750Z,6.22
2017-11-12T19:05:32.767Z,6.25
2017-11-12T19:06:49.011Z,6.28
2017-11-12T19:08:03.829Z,6.19
2017-11-12T19:09:19.220Z,6.15
2017-11-12T19:10:34.338Z,6.25
2017-11-12T19:11:50.043Z,6.28
2017-11-12T19:13:04.878Z,6.31
2017-11-12T19:14:19.976Z,6.32
2017-11-12T19:15:34.599Z,6.34
2017-11-12T19:16:49.312Z,6.35
2017-11-12T19:18:05.724Z,6.32
2017-11-12T19:19:20.395Z,6.39
2017-11-12T19:20:40.546Z,6.43
2017-11-12T19:21:58.690Z,6.46
2017-11-12T19:23:24.694Z,6.59
2017-11-12T19:24:47.316Z,6.53
2017-11-12T19:26:08.600Z,6.54
2017-11-12T19:27:26.495Z,6.57
2017-11-12T19:28:40.814Z,6.56
2017-11-12T19:29:56.669Z,6.67
2017-11-12T19:31:11.766Z,6.6
2017-11-12T19:32:26.674Z,6.67
2017-11-12T19:33:41.641Z,6.57
2017-11-12T19:34:57.078Z,6.57
2017-11-12T19:36:12.757Z,6.64
2017-11-12T19:37:27.100Z,6.67
2017-11-12T19:38:41.536Z,6.57
2017-11-12T19:39:56.180Z,6.6
2017-11-12T19:41:10.777Z,6.6
2017-11-12T19:42:26.630Z,6.62
2017-11-12T19:43:42.334Z,6.57
2017-11-12T19:44:57.373Z,6.71
2017-11-12T19:46:13.170Z,6.67
2017-11-12T19:47:27.417Z,6.59
2017-11-12T19:48:42.182Z,6.53
2017-11-12T19:49:56.690Z,6.54
2017-11-12T19:51:11.451Z,6.59
2017-11-12T19:52:26.036Z,6.53
2017-11-12T19:53:40.673Z,6.6
2017-11-12T19:54:56.431Z,6.67
2017-11-12T19:56:11.602Z,6.59
2017-11-12T19:57:26.441Z,6.62
2017-11-12T19:58:40.791Z,6.57
2017-11-12T19:59:55.312Z,6.47
2017-11-12T20:01:10.081Z,6.54
2017-11-12T20:02:24.538Z,6.59
2017-11-12T20:03:39.341Z,6.67
2017-11-12T20:04:54.711Z,6.56
2017-11-12T20:06:09.362Z,6.62
2017-11-12T20:07:25.310Z,6.46
2017-11-12T20:08:40.857Z,6.53
2017-11-12T20:09:56.236Z,6.57
2017-11-12T20:11:10.619Z,6.54
2017-11-12T20:12:25.113Z,6.54
2017-11-12T20:13:39.797Z,6.54
2017-11-12T20:14:54.211Z,6.43
2017-11-12T20:16:09.803Z,6.53
2017-11-12T20:17:24.597Z,6.56
2017-11-12T20:18:38.827Z,6.53
2017-11-12T20:19:54.032Z,6.5
2017-11-12T20:21:08.844Z,6.49
2017-11-12T20:22:23.901Z,6.56
2017-11-12T20:23:39.390Z,6.41
2017-11-12T20:24:53.912Z,6.53
2017-11-12T20:26:09.046Z,6.53
2017-11-12T20:27:24.956Z,6.54
2017-11-12T20:28:39.927Z,6.62
2017-11-12T20:29:56.493Z,6.54
2017-11-12T20:31:11.880Z,6.62
2017-11-12T20:32:27.043Z,6.57
2017-11-12T20:33:42.101Z,6.57
2017-11-12T20:34:57.311Z,6.56
2017-11-12T20:36:12.664Z,6.59
2017-11-12T20:37:28.391Z,6.68
2017-11-12T20:38:43.030Z,6.59
2017-11-12T20:39:58.863Z,6.62
2017-11-12T20:41:14.814Z,6.65
2017-11-12T20:42:30.516Z,6.68
2017-11-12T20:43:46.701Z,6.7
2017-11-12T20:45:01.654Z,6.7
2017-11-12T20:46:16.866Z,6.57
2017-11-12T20:47:32.073Z,6.54
2017-11-12T20:48:46.896Z,6.57
2017-11-12T20:50:01.807Z,6.56
2017-11-12T20:51:16.139Z,6.59
2017-11-12T20:52:30.834Z,6.6
2017-11-12T20:53:45.903Z,6.6
2017-11-12T20:55:00.806Z,6.57
2017-11-12T20:56:16.559Z,6.56
2017-11-12T20:57:31.452Z,6.54
2017-11-12T20:58:46.124Z,6.54
2017-11-12T21:00:00.764Z,6.6
2017-11-12T21:01:15.017Z,6.56
2017-11-12T21:02:29.358Z,6.57
2017-11-12T21:03:44.977Z,6.59
2017-11-12T21:04:59.949Z,6.65
2017-11-12T21:06:15.463Z,6.57
2017-11-12T21:07:32.276Z,6.57
2017-11-12T21:08:48.306Z,6.59
2017-11-12T21:10:03.898Z,6.54
2017-11-12T21:11:18.243Z,6.6
2017-11-12T21:12:32.455Z,6.56
2017-11-12T21:13:47.271Z,6.49
2017-11-12T21:15:02.095Z,6.49
2017-11-12T21:16:16.954Z,6.52
2017-11-12T21:17:31.143Z,6.47
2017-11-12T21:18:46.430Z,6.59
2017-11-12T21:20:00.721Z,6.64
2017-11-12T21:21:16.433Z,6.6
2017-11-12T21:22:30.630Z,6.64
2017-11-12T21:23:44.857Z,6.57
2017-11-12T21:24:59.310Z,6.59
2017-11-12T21:26:13.676Z,6.56
2017-11-12T21:27:28.075Z,6.59
2017-11-12T21:28:42.949Z,6.57
2017-11-12T21:29:57.235Z,6.59
2017-11-12T21:31:11.922Z,6.41
2017-11-12T21:32:26.541Z,6.46
2017-11-12T21:33:40.871Z,6.6
2017-11-12T21:34:55.183Z,6.43
2017-11-12T21:36:10.107Z,6.46
2017-11-12T21:37:24.263Z,6.46
2017-11-12T21:38:39.421Z,6.43
2017-11-12T21:39:53.890Z,6.44
2017-11-12T21:41:08.186Z,6.38
2017-11-12T21:42:22.422Z,6.44
2017-11-12T21:43:37.117Z,6.47
2017-11-12T21:44:51.550Z,6.43
2017-11-12T21:46:05.902Z,6.43
2017-11-12T21:47:20.092Z,6.29
2017-11-12T21:48:34.708Z,6.39
2017-11-12T21:49:49.037Z,6.41
2017-11-12T21:51:03.376Z,6.44
2017-11-12T21:52:18.397Z,6.44
2017-11-12T21:53:32.748Z,6.38
2017-11-12T21:54:47.018Z,6.47
2017-11-12T21:56:06.934Z,6.57
2017-11-12T21:57:21.484Z,6.56
2017-11-12T21:58:36.275Z,6.32
2017-11-12T21:59:50.615Z,6.28
2017-11-12T22:01:06.269Z,6.34
2017-11-12T22:02:22.139Z,6.31
2017-11-12T22:03:37.937Z,6.31
2017-11-12T22:04:54.037Z,6.28
2017-11-12T22:06:12.820Z,6.32
2017-11-12T22:07:29.424Z,6.29
2017-11-12T22:08:46.830Z,6.34
2017-11-12T22:10:02.502Z,6.29
2017-11-12T22:11:18.239Z,6.41
2017-11-12T22:12:33.313Z,6.43
2017-11-12T22:13:47.967Z,6.44
2017-11-12T22:15:02.855Z,6.44
2017-11-12T22:16:18.141Z,6.5
2017-11-12T22:17:32.731Z,6.46
2017-11-12T22:18:47.194Z,6.46
2017-11-12T22:20:01.627Z,6.44
2017-11-12T22:21:17.252Z,6.47
2017-11-12T22:22:33.407Z,6.46
2017-11-12T22:23:48.475Z,6.46
2017-11-12T22:25:03.208Z,6.46
2017-11-12T22:26:17.937Z,6.43
2017-11-12T22:27:32.645Z,6.54
2017-11-12T22:28:47.364Z,6.44
2017-11-12T22:30:01.623Z,6.53
2017-11-12T22:31:17.857Z,6.49
2017-11-12T22:32:32.325Z,6.38
2017-11-12T22:33:48.096Z,6.43
2017-11-12T22:35:03.860Z,6.43
2017-11-12T22:36:18.492Z,6.47
2017-11-12T22:37:34.072Z,6.39
2017-11-12T22:38:49.854Z,6.41
2017-11-12T22:40:05.120Z,6.41
2017-11-12T22:41:20.293Z,6.38
2017-11-12T22:42:35.496Z,6.47
2017-11-12T22:43:50.533Z,6.32
2017-11-12T22:45:04.846Z,6.39
2017-11-12T22:46:20.035Z,6.47
2017-11-12T22:47:35.068Z,6.47
2017-11-12T22:48:50.291Z,6.46
2017-11-12T22:50:05.868Z,6.46
2017-11-12T22:51:22.759Z,6.43
2017-11-12T22:52:39.206Z,6.46
2017-11-12T22:53:54.618Z,6.44
2017-11-12T22:55:08.845Z,6.43
2017-11-12T22:56:23.842Z,6.44
2017-11-12T22:57:39.013Z,6.46
2017-11-12T22:58:53.469Z,6.41
2017-11-12T23:00:08.744Z,6.41
2017-11-12T23:01:24.185Z,6.49
2017-11-12T23:02:38.461Z,6.41
2017-11-12T23:03:52.759Z,6.46
2017-11-12T23:05:07.077Z,6.43
2017-11-12T23:06:22.020Z,6.41
2017-11-12T23:07:36.441Z,6.38
2017-11-12T23:08:51.583Z,6.43
2017-11-12T23:10:06.643Z,6.43
2017-11-12T23:11:21.318Z,6.31
2017-11-12T23:12:35.855Z,6.43
2017-11-12T23:13:50.506Z,6.43
2017-11-12T23:15:05.012Z,6.39
2017-11-12T23:16:19.505Z,6.38
2017-11-12T23:17:36.268Z,6.34
2017-11-12T23:18:50.908Z,6.47
2017-11-12T23:20:06.209Z,6.44
2017-11-12T23:21:20.732Z,6.41
2017-11-12T23:22:35.308Z,6.46
2017-11-12T23:23:49.599Z,6.43
2017-11-12T23:25:03.998Z,6.46
2017-11-12T23:26:18.568Z,6.5
2017-11-12T23:27:34.567Z,6.43
2017-11-12T23:28:49.304Z,6.56
2017-11-12T23:30:04.385Z,6.52
2017-11-12T23:31:18.667Z,6.41
2017-11-12T23:32:33.148Z,6.52
2017-11-12T23:33:47.485Z,6.44
2017-11-12T23:35:01.688Z,6.46
2017-11-12T23:36:16.310Z,6.44
2017-11-12T23:37:30.817Z,6.47
2017-11-12T23:38:45.232Z,6.54
2017-11-12T23:39:59.873Z,6.44
2017-11-12T23:41:14.085Z,6.46
2017-11-12T23:42:29.345Z,6.5
2017-11-12T23:43:43.853Z,6.44
2017-11-12T23:44:58.111Z,6.46
2017-11-12T23:46:12.338Z,6.49
2017-11-12T23:47:26.552Z,6.43
2017-11-12T23:48:42.047Z,6.49
2017-11-12T23:49:56.239Z,6.47
2017-11-12T23:51:10.543Z,6.49
2017-11-12T23:52:24.896Z,6.46
2017-11-12T23:53:39.152Z,6.52
2017-11-12T23:54:53.389Z,6.56
2017-11-12T23:56:45.884Z,6.56
2017-11-12T23:58:00.414Z,6.68
2017-11-12T23:59:15.549Z,6.56
